Time;durP1;ratioP1;P1;durP2;ratioP2;P2;SDS_P1;SDS_P2;PMS_P1;PMS_P2;Temp;Humidity;BMP_temperature;BMP_pressure;BME280_temperature;BME280_humidity;BME280_pressure;Samples;Min_cycle;Max_cycle;Signal;HPM_P1;HPM_P2
2023/10/06 00:00:18;;;;;;;3.30;1.20;;;10.50;99.90;;;;;;5096062;28;20442;-85
2023/10/06 00:02:45;;;;;;;2.30;1.00;;;10.40;99.90;;;;;;5095706;28;20464;-85
2023/10/06 00:05:13;;;;;;;2.90;1.20;;;10.40;99.90;;;;;;5096052;28;20452;-85
2023/10/06 00:07:40;;;;;;;2.13;1.70;;;10.30;99.90;;;;;;5095889;28;20447;-85
2023/10/06 00:10:14;;;;;;;3.10;0.83;;;10.40;99.90;;;;;;5095874;28;20540;-85
2023/10/06 00:12:47;;;;;;;1.10;0.80;;;10.40;99.90;;;;;;5095814;28;20985;-85
2023/10/06 00:15:14;;;;;;;1.10;1.00;;;10.30;99.90;;;;;;5095883;28;20433;-85
2023/10/06 00:17:48;;;;;;;2.13;1.00;;;11.10;99.90;;;;;;5095363;28;20448;-85
2023/10/06 00:20:25;;;;;;;4.30;1.00;;;10.30;99.90;;;;;;5095740;28;20424;-85
2023/10/06 00:22:54;;;;;;;3.00;1.20;;;10.30;99.90;;;;;;5094506;28;20979;-85
2023/10/06 00:25:24;;;;;;;3.23;0.90;;;10.30;99.90;;;;;;5095561;28;20456;-85
2023/10/06 00:27:52;;;;;;;1.57;1.03;;;10.30;99.90;;;;;;5095288;28;20452;-85
2023/10/06 00:30:20;;;;;;;1.63;1.20;;;10.30;99.90;;;;;;5095418;28;20533;-85
2023/10/06 00:32:48;;;;;;;2.40;1.30;;;10.30;99.90;;;;;;5094928;28;20550;-85
2023/10/06 00:35:16;;;;;;;5.90;1.40;;;10.20;99.90;;;;;;5095017;28;20498;-85
2023/10/06 00:37:44;;;;;;;1.90;1.00;;;10.20;99.90;;;;;;5095312;28;20539;-85
2023/10/06 00:40:19;;;;;;;1.70;1.07;;;10.20;99.90;;;;;;5095379;28;20436;-85
2023/10/06 00:42:53;;;;;;;0.80;0.80;;;10.20;99.90;;;;;;5095003;28;20479;-85
2023/10/06 00:45:22;;;;;;;1.83;1.00;;;10.20;99.90;;;;;;5095263;28;20458;-85
2023/10/06 00:47:52;;;;;;;0.83;0.70;;;10.20;99.90;;;;;;5095212;28;20456;-85
2023/10/06 00:50:22;;;;;;;4.57;1.10;;;10.20;99.90;;;;;;5094782;28;21027;-85
2023/10/06 00:52:50;;;;;;;2.20;0.93;;;10.20;99.90;;;;;;5094983;28;20467;-85
2023/10/06 00:55:17;;;;;;;1.80;1.43;;;10.20;99.90;;;;;;5095054;28;20452;-85
2023/10/06 00:57:52;;;;;;;5.50;1.00;;;10.10;99.90;;;;;;5094656;28;20856;-85
2023/10/06 01:00:21;;;;;;;3.20;1.80;;;10.20;99.90;;;;;;5094925;28;20424;-85
2023/10/06 01:02:49;;;;;;;3.87;2.23;;;10.20;99.90;;;;;;5094646;28;20464;-85
2023/10/06 01:05:17;;;;;;;1.80;1.00;;;10.20;99.90;;;;;;5094697;28;20542;-85
2023/10/06 01:07:45;;;;;;;2.00;1.10;;;10.10;99.90;;;;;;5094523;28;20433;-85
2023/10/06 01:10:17;;;;;;;1.33;1.10;;;10.10;99.90;;;;;;5094635;28;20475;-85
2023/10/06 01:12:50;;;;;;;2.90;1.00;;;10.10;99.90;;;;;;5094857;28;20499;-85
2023/10/06 01:15:18;;;;;;;2.30;1.07;;;10.40;99.90;;;;;;5094658;28;20451;-85
2023/10/06 01:17:47;;;;;;;2.80;0.90;;;10.00;99.90;;;;;;5094524;28;20444;-85
2023/10/06 01:20:28;;;;;;;1.93;0.90;;;10.00;99.90;;;;;;5094598;28;20801;-85
2023/10/06 01:22:56;;;;;;;2.83;1.23;;;10.00;99.90;;;;;;5094444;28;20464;-85
2023/10/06 01:25:24;;;;;;;1.40;0.70;;;10.00;99.90;;;;;;5094684;28;20551;-85
2023/10/06 01:27:51;;;;;;;2.10;1.90;;;10.00;99.90;;;;;;5094381;28;20929;-85
2023/10/06 01:30:18;;;;;;;1.13;1.07;;;9.90;99.90;;;;;;5094177;28;20483;-85
2023/10/06 01:32:45;;;;;;;1.97;0.90;;;10.30;99.90;;;;;;5094091;28;20848;-85
2023/10/06 01:35:15;;;;;;;2.57;1.37;;;9.90;99.90;;;;;;5094387;28;20452;-85
2023/10/06 01:37:43;;;;;;;1.37;0.80;;;9.90;99.90;;;;;;5094307;28;20820;-85
2023/10/06 01:40:35;;;;;;;1.40;1.10;;;9.90;99.90;;;;;;5094289;28;20444;-85
2023/10/06 01:43:09;;;;;;;3.17;1.07;;;9.90;99.90;;;;;;5093993;28;20487;-85
2023/10/06 01:45:43;;;;;;;0.87;0.67;;;9.90;99.90;;;;;;5093954;28;20958;-85
2023/10/06 01:48:22;;;;;;;1.27;1.10;;;9.80;99.90;;;;;;5093891;28;20897;-85
2023/10/06 01:50:49;;;;;;;4.30;1.10;;;9.90;99.90;;;;;;5093837;28;20494;-85
2023/10/06 01:53:18;;;;;;;2.47;1.30;;;9.80;99.90;;;;;;5093806;28;20821;-85
2023/10/06 01:55:49;;;;;;;2.40;1.10;;;9.80;99.90;;;;;;5093983;28;20448;-85
2023/10/06 01:58:16;;;;;;;6.70;1.83;;;9.70;99.90;;;;;;5093984;28;20477;-85
2023/10/06 02:00:45;;;;;;;2.53;0.97;;;9.80;99.90;;;;;;5093897;28;20444;-85
2023/10/06 02:03:15;;;;;;;3.30;1.10;;;9.70;99.90;;;;;;5093890;28;20464;-85
2023/10/06 02:05:42;;;;;;;3.13;1.13;;;9.80;99.90;;;;;;5093884;28;20428;-85
2023/10/06 02:08:14;;;;;;;1.93;0.80;;;9.80;99.90;;;;;;5093736;28;20444;-85
2023/10/06 02:10:42;;;;;;;4.43;0.87;;;9.80;99.90;;;;;;5093801;28;20456;-85
2023/10/06 02:13:11;;;;;;;0.93;0.80;;;9.80;99.90;;;;;;5093666;28;20460;-85
2023/10/06 02:15:37;;;;;;;2.13;1.33;;;9.80;99.90;;;;;;5093762;28;20444;-85
2023/10/06 02:18:12;;;;;;;2.57;1.30;;;9.80;99.90;;;;;;5093819;28;20448;-85
2023/10/06 02:20:41;;;;;;;4.30;1.40;;;9.80;99.90;;;;;;5093915;28;20840;-85
2023/10/06 02:23:08;;;;;;;1.00;0.90;;;9.80;99.90;;;;;;5093778;28;20499;-85
2023/10/06 02:25:36;;;;;;;2.30;1.20;;;9.70;99.90;;;;;;5093634;28;20448;-86
2023/10/06 02:28:05;;;;;;;1.10;0.93;;;9.70;99.90;;;;;;5093821;28;20448;-85
2023/10/06 02:30:36;;;;;;;1.43;1.17;;;9.70;99.90;;;;;;5093472;28;20484;-86
2023/10/06 02:33:05;;;;;;;4.67;1.60;;;9.70;99.90;;;;;;5093303;28;20559;-85
2023/10/06 02:35:32;;;;;;;2.47;1.37;;;9.70;99.90;;;;;;5093546;28;20481;-85
2023/10/06 02:38:04;;;;;;;2.37;1.90;;;9.60;99.90;;;;;;5093768;28;20451;-86
2023/10/06 02:40:38;;;;;;;1.97;1.00;;;9.70;99.90;;;;;;5093687;28;20435;-85
2023/10/06 02:43:07;;;;;;;0.70;0.70;;;9.70;99.90;;;;;;5093022;28;20489;-85
2023/10/06 02:45:40;;;;;;;1.37;0.90;;;9.70;99.90;;;;;;5095035;28;20451;-85
2023/10/06 02:48:14;;;;;;;5.50;2.60;;;9.70;99.90;;;;;;5097683;28;20438;-85
2023/10/06 02:50:44;;;;;;;5.10;1.40;;;9.70;99.90;;;;;;5097948;28;20475;-86
2023/10/06 02:53:14;;;;;;;7.13;1.90;;;9.70;99.90;;;;;;5097606;28;20542;-85
2023/10/06 02:55:43;;;;;;;3.07;1.33;;;9.80;99.90;;;;;;5108714;28;20447;-85
2023/10/06 02:58:14;;;;;;;1.47;1.07;;;9.80;99.90;;;;;;5098072;28;20894;-85
2023/10/06 03:00:50;;;;;;;1.17;1.00;;;9.80;99.90;;;;;;5097181;28;20428;-86
2023/10/06 03:03:18;;;;;;;1.60;1.50;;;9.80;99.90;;;;;;5097394;28;20491;-86
2023/10/06 03:05:49;;;;;;;1.17;1.00;;;9.70;99.90;;;;;;5097301;28;20848;-86
2023/10/06 03:08:20;;;;;;;3.10;1.60;;;9.70;99.90;;;;;;5097260;28;20436;-85
2023/10/06 03:10:48;;;;;;;1.57;1.17;;;9.60;99.90;;;;;;5097120;28;20491;-86
2023/10/06 03:13:24;;;;;;;1.63;0.87;;;9.60;99.90;;;;;;5097404;28;20464;-86
2023/10/06 03:15:52;;;;;;;2.20;0.90;;;9.60;99.90;;;;;;5097326;28;20432;-85
2023/10/06 03:18:19;;;;;;;1.80;1.20;;;9.50;99.90;;;;;;5097116;28;20448;-86
2023/10/06 03:20:48;;;;;;;2.40;1.20;;;9.50;99.90;;;;;;5096869;28;20459;-86
2023/10/06 03:23:26;;;;;;;4.07;2.03;;;9.50;99.90;;;;;;5097206;28;20459;-85
2023/10/06 03:25:56;;;;;;;9.23;1.70;;;9.50;99.90;;;;;;5097409;28;20419;-86
2023/10/06 03:28:32;;;;;;;2.17;1.23;;;9.60;99.90;;;;;;5097412;28;20451;-86
2023/10/06 03:31:04;;;;;;;1.80;1.20;;;9.50;99.90;;;;;;5097111;28;20474;-86
2023/10/06 03:33:31;;;;;;;3.60;1.47;;;9.50;99.90;;;;;;5097187;28;20831;-86
2023/10/06 03:35:58;;;;;;;3.00;1.50;;;9.50;99.90;;;;;;5096666;28;20999;-86
2023/10/06 03:38:36;;;;;;;3.67;1.10;;;9.40;99.90;;;;;;5096772;28;20440;-86
2023/10/06 03:41:12;;;;;;;8.83;1.53;;;9.40;99.90;;;;;;5096350;28;20771;-86
2023/10/06 03:43:47;;;;;;;7.60;1.53;;;9.40;99.90;;;;;;5096666;28;20474;-86
2023/10/06 03:46:18;;;;;;;2.70;1.30;;;9.30;99.90;;;;;;5096527;28;20798;-86
2023/10/06 03:48:46;;;;;;;2.67;1.20;;;9.30;99.90;;;;;;5096558;28;20485;-86
2023/10/06 03:51:12;;;;;;;3.27;1.63;;;9.40;99.90;;;;;;5096361;28;20491;-86
2023/10/06 03:53:40;;;;;;;4.10;1.83;;;9.30;99.90;;;;;;5096584;28;20828;-86
2023/10/06 03:56:08;;;;;;;6.83;1.43;;;9.30;99.90;;;;;;5096029;28;20444;-86
2023/10/06 03:58:34;;;;;;;6.27;1.57;;;9.30;99.90;;;;;;5096211;28;20448;-86
2023/10/06 04:01:08;;;;;;;4.10;1.63;;;9.30;99.90;;;;;;5096454;28;20453;-86
2023/10/06 04:03:36;;;;;;;2.17;1.70;;;9.30;99.90;;;;;;5096087;28;20995;-86
2023/10/06 04:06:04;;;;;;;2.30;1.93;;;9.20;99.90;;;;;;5096233;28;20452;-86
2023/10/06 04:08:31;;;;;;;2.20;2.00;;;9.30;99.90;;;;;;5096040;28;20440;-86
2023/10/06 04:10:58;;;;;;;4.37;2.17;;;9.20;99.90;;;;;;5096001;28;20483;-85
2023/10/06 04:13:25;;;;;;;3.30;1.50;;;9.20;99.90;;;;;;5095759;28;20463;-85
2023/10/06 04:15:53;;;;;;;5.07;1.90;;;9.20;99.90;;;;;;5095900;28;20451;-86
2023/10/06 04:18:22;;;;;;;3.90;0.90;;;9.20;99.90;;;;;;5095693;28;20448;-86
2023/10/06 04:20:51;;;;;;;4.33;1.20;;;10.30;99.90;;;;;;5095688;28;20451;-86
2023/10/06 04:23:18;;;;;;;1.53;0.93;;;9.80;99.90;;;;;;5095968;28;20471;-86
2023/10/06 04:25:46;;;;;;;2.53;1.10;;;9.20;99.90;;;;;;5095901;28;20811;-86
2023/10/06 04:28:14;;;;;;;4.60;1.87;;;9.10;99.90;;;;;;5096046;28;20842;-85
2023/10/06 04:30:43;;;;;;;3.60;2.00;;;9.20;99.90;;;;;;5095523;28;20450;-86
2023/10/06 04:33:11;;;;;;;8.63;2.20;;;9.10;99.90;;;;;;5095624;28;20828;-86
2023/10/06 04:35:40;;;;;;;3.43;1.47;;;9.20;99.90;;;;;;5095378;28;20971;-86
2023/10/06 04:38:10;;;;;;;4.60;3.20;;;9.10;99.90;;;;;;5095541;28;20543;-86
2023/10/06 04:40:37;;;;;;;1.83;1.53;;;9.10;99.90;;;;;;5095595;28;20855;-86
2023/10/06 04:43:04;;;;;;;2.50;1.30;;;9.70;99.90;;;;;;5094877;28;20911;-86
2023/10/06 04:45:31;;;;;;;5.80;2.10;;;9.10;99.90;;;;;;5095161;28;20974;-86
2023/10/06 04:48:00;;;;;;;7.77;2.07;;;9.20;99.90;;;;;;5095602;28;20792;-86
2023/10/06 04:50:27;;;;;;;2.27;1.40;;;9.20;99.90;;;;;;5095312;28;20825;-86
2023/10/06 04:52:55;;;;;;;2.60;1.33;;;9.10;99.90;;;;;;5095169;28;21053;-86
2023/10/06 04:55:23;;;;;;;3.77;1.30;;;9.10;99.90;;;;;;5095205;28;20521;-86
2023/10/06 04:57:50;;;;;;;2.80;1.60;;;9.10;99.90;;;;;;5095187;28;20945;-86
2023/10/06 05:00:20;;;;;;;2.90;1.47;;;9.20;99.90;;;;;;5094922;28;20454;-86
2023/10/06 05:02:48;;;;;;;7.30;2.60;;;9.20;99.90;;;;;;5094893;28;20460;-86
2023/10/06 05:05:19;;;;;;;2.67;2.47;;;9.30;99.90;;;;;;5095008;28;20500;-86
2023/10/06 05:07:46;;;;;;;1.90;1.40;;;9.20;99.90;;;;;;5094727;28;20432;-86
2023/10/06 05:10:14;;;;;;;10.20;2.60;;;9.20;99.90;;;;;;5095191;28;20440;-86
2023/10/06 05:12:42;;;;;;;2.00;1.43;;;9.20;99.90;;;;;;5094843;28;20492;-86
2023/10/06 05:15:15;;;;;;;5.33;2.80;;;9.20;99.90;;;;;;5094915;28;20443;-86
2023/10/06 05:17:41;;;;;;;2.30;1.47;;;9.20;99.90;;;;;;5094786;28;20424;-86
2023/10/06 05:20:19;;;;;;;11.53;1.60;;;9.30;99.90;;;;;;5094469;28;20956;-86
2023/10/06 05:22:48;;;;;;;2.23;1.53;;;9.20;99.90;;;;;;5094937;28;20456;-86
2023/10/06 05:25:15;;;;;;;3.23;2.40;;;9.20;99.90;;;;;;5094642;28;20490;-86
2023/10/06 05:27:44;;;;;;;3.77;2.63;;;9.30;99.90;;;;;;5094758;28;20937;-86
2023/10/06 05:30:13;;;;;;;5.23;2.27;;;9.20;99.90;;;;;;5094761;28;20478;-86
2023/10/06 05:32:42;;;;;;;3.10;1.40;;;9.20;99.90;;;;;;5094489;28;20489;-86
2023/10/06 05:35:13;;;;;;;2.53;1.60;;;9.30;99.90;;;;;;5094467;28;20506;-86
2023/10/06 05:37:44;;;;;;;4.67;1.20;;;9.30;99.90;;;;;;5094626;28;20472;-86
2023/10/06 05:40:16;;;;;;;3.20;1.47;;;9.40;99.90;;;;;;5094178;28;20932;-86
2023/10/06 05:42:48;;;;;;;3.50;1.90;;;9.40;99.90;;;;;;5094187;28;20854;-86
2023/10/06 05:45:18;;;;;;;2.53;2.13;;;9.40;99.90;;;;;;5094430;28;20437;-86
2023/10/06 05:47:46;;;;;;;3.43;2.43;;;9.50;99.90;;;;;;5094314;28;20835;-85
2023/10/06 05:50:26;;;;;;;6.33;2.07;;;9.50;99.90;;;;;;5094294;28;20833;-86
2023/10/06 05:52:57;;;;;;;3.57;1.60;;;9.50;99.90;;;;;;5094166;28;20492;-86
2023/10/06 05:55:29;;;;;;;3.93;1.97;;;9.50;99.90;;;;;;5094188;28;20439;-86
2023/10/06 05:57:58;;;;;;;3.23;2.90;;;9.50;99.90;;;;;;5094486;28;20434;-86
2023/10/06 06:00:27;;;;;;;2.53;1.60;;;9.50;99.90;;;;;;5094193;28;20506;-86
2023/10/06 06:02:57;;;;;;;4.93;2.20;;;9.50;99.90;;;;;;5094456;28;20507;-86
2023/10/06 06:05:24;;;;;;;3.50;1.40;;;9.60;99.90;;;;;;5095043;28;20428;-86
2023/10/06 06:07:52;;;;;;;2.60;1.53;;;9.70;99.90;;;;;;5093812;28;20444;-86
2023/10/06 06:10:19;;;;;;;3.67;2.00;;;9.70;99.90;;;;;;5094456;28;20435;-86
2023/10/06 06:12:47;;;;;;;3.23;1.97;;;10.50;99.90;;;;;;5093859;28;21015;-86
2023/10/06 06:15:16;;;;;;;2.60;2.10;;;9.70;99.90;;;;;;5093910;28;20451;-85
2023/10/06 06:17:44;;;;;;;4.30;1.87;;;9.60;99.90;;;;;;5094009;28;20460;-86
2023/10/06 06:20:14;;;;;;;15.77;2.73;;;9.70;99.90;;;;;;5092699;28;20451;-86
2023/10/06 06:22:43;;;;;;;2.10;1.60;;;9.70;99.90;;;;;;5094013;28;20456;-85
2023/10/06 06:25:10;;;;;;;4.20;1.70;;;9.70;99.90;;;;;;5093791;28;20448;-85
2023/10/06 06:27:37;;;;;;;2.70;1.97;;;9.70;99.90;;;;;;5093807;28;20835;-85
2023/10/06 06:30:04;;;;;;;7.43;2.07;;;9.80;99.90;;;;;;5093681;28;20451;-85
2023/10/06 06:32:34;;;;;;;8.80;3.20;;;9.80;99.90;;;;;;5093944;28;20476;-85
2023/10/06 06:35:01;;;;;;;4.37;1.30;;;9.80;99.90;;;;;;5093702;28;20485;-86
2023/10/06 06:37:28;;;;;;;6.00;2.93;;;9.80;99.90;;;;;;5093657;28;20436;-86
2023/10/06 06:39:55;;;;;;;3.27;2.53;;;9.80;99.90;;;;;;5093325;28;20941;-86
2023/10/06 06:42:21;;;;;;;4.20;2.47;;;9.90;99.90;;;;;;5093388;28;20479;-86
2023/10/06 06:44:50;;;;;;;4.87;1.90;;;10.00;99.90;;;;;;5093246;28;20455;-85
2023/10/06 06:47:18;;;;;;;2.73;2.13;;;10.00;99.90;;;;;;5093613;28;20452;-85
2023/10/06 06:49:48;;;;;;;3.70;1.50;;;10.10;99.90;;;;;;5093445;28;20475;-85
2023/10/06 06:52:15;;;;;;;2.23;1.63;;;11.50;99.90;;;;;;5093300;28;20903;-85
2023/10/06 06:54:46;;;;;;;2.57;2.37;;;10.20;99.90;;;;;;5093600;28;20440;-85
2023/10/06 06:57:16;;;;;;;2.63;2.10;;;10.40;99.90;;;;;;5093486;28;20784;-85
2023/10/06 06:59:44;;;;;;;4.37;2.20;;;10.30;99.90;;;;;;5093487;28;20435;-86
2023/10/06 07:02:11;;;;;;;3.63;1.83;;;10.30;99.90;;;;;;5093238;28;21011;-86
2023/10/06 07:04:39;;;;;;;3.07;1.60;;;10.90;99.90;;;;;;5092988;28;20543;-86
2023/10/06 07:07:07;;;;;;;4.00;1.93;;;11.60;99.90;;;;;;5093272;28;20495;-86
2023/10/06 07:09:34;;;;;;;3.90;2.60;;;10.80;99.90;;;;;;5093465;28;20436;-85
2023/10/06 07:12:01;;;;;;;2.87;1.90;;;10.60;99.90;;;;;;5093190;28;20571;-85
2023/10/06 07:14:27;;;;;;;4.67;1.80;;;10.70;99.90;;;;;;5093269;28;20448;-86
2023/10/06 07:16:56;;;;;;;3.73;2.47;;;10.80;99.90;;;;;;5093211;28;20448;-85
2023/10/06 07:19:23;;;;;;;3.03;1.83;;;11.40;99.90;;;;;;5093221;28;20444;-85
2023/10/06 07:21:51;;;;;;;4.83;1.77;;;11.20;99.90;;;;;;5093286;28;20889;-86
2023/10/06 07:24:19;;;;;;;4.40;2.17;;;10.90;99.90;;;;;;5093026;28;20944;-86
2023/10/06 07:26:46;;;;;;;2.20;1.90;;;11.70;99.90;;;;;;5093069;28;20439;-85
2023/10/06 07:29:14;;;;;;;3.10;2.30;;;11.00;99.90;;;;;;5093105;28;20444;-85
2023/10/06 07:31:41;;;;;;;3.90;1.77;;;11.60;99.90;;;;;;5094886;28;20439;-86
2023/10/06 07:34:08;;;;;;;2.90;1.30;;;11.10;99.90;;;;;;5096406;28;21014;-86
2023/10/06 07:36:35;;;;;;;2.77;1.30;;;11.20;99.90;;;;;;5096708;28;20448;-86
2023/10/06 07:39:08;;;;;;;4.30;1.20;;;11.30;99.90;;;;;;5096743;28;20497;-86
2023/10/06 07:41:37;;;;;;;4.23;1.30;;;11.40;99.90;;;;;;5096389;28;20528;-85
2023/10/06 07:44:05;;;;;;;3.60;2.10;;;11.40;99.90;;;;;;5096773;28;20464;-85
2023/10/06 07:46:33;;;;;;;3.50;1.60;;;11.50;99.90;;;;;;5096539;28;20428;-85
2023/10/06 07:49:01;;;;;;;6.40;3.50;;;11.90;99.90;;;;;;5096133;28;20466;-85
2023/10/06 07:51:28;;;;;;;2.53;1.83;;;11.50;99.90;;;;;;5096247;28;20476;-85
2023/10/06 07:53:55;;;;;;;4.27;2.00;;;11.50;99.90;;;;;;5096334;28;20464;-85
2023/10/06 07:56:22;;;;;;;1.97;1.67;;;11.70;99.90;;;;;;5096186;28;20440;-86
2023/10/06 07:58:52;;;;;;;6.80;1.83;;;11.80;99.90;;;;;;5096175;28;20448;-85
2023/10/06 08:01:20;;;;;;;6.37;2.10;;;12.40;99.90;;;;;;5096175;28;20436;-85
2023/10/06 08:03:47;;;;;;;6.00;2.17;;;12.00;99.90;;;;;;5095981;28;20514;-85
2023/10/06 08:06:14;;;;;;;2.50;1.73;;;12.10;99.90;;;;;;5096142;28;20810;-85
2023/10/06 08:08:41;;;;;;;6.63;1.87;;;12.20;99.90;;;;;;5096119;28;20432;-86
2023/10/06 08:11:09;;;;;;;4.90;1.73;;;12.30;99.90;;;;;;5095853;28;20421;-85
2023/10/06 08:13:37;;;;;;;2.70;1.83;;;12.50;99.90;;;;;;5095753;28;20479;-85
2023/10/06 08:16:07;;;;;;;12.23;1.57;;;12.60;99.90;;;;;;5095896;28;20458;-85
2023/10/06 08:18:34;;;;;;;5.63;1.80;;;12.70;99.90;;;;;;5095835;28;21148;-85
2023/10/06 08:21:01;;;;;;;2.27;2.07;;;12.90;99.90;;;;;;5095702;28;20447;-85
2023/10/06 08:23:29;;;;;;;6.70;2.30;;;13.10;99.90;;;;;;5095760;28;20452;-85
2023/10/06 08:25:57;;;;;;;4.90;2.10;;;13.40;99.90;;;;;;5095590;28;20423;-85
2023/10/06 08:28:24;;;;;;;3.17;1.50;;;13.20;99.90;;;;;;5095593;28;20439;-85
2023/10/06 08:30:51;;;;;;;4.07;1.90;;;13.30;99.90;;;;;;5095551;28;20505;-85
2023/10/06 08:33:19;;;;;;;5.67;2.20;;;13.60;99.90;;;;;;5095308;28;20492;-85
2023/10/06 08:35:46;;;;;;;3.07;2.07;;;13.70;99.90;;;;;;5095188;28;20452;-85
2023/10/06 08:38:14;;;;;;;3.33;1.50;;;13.80;99.90;;;;;;5095379;28;20473;-86
2023/10/06 08:40:43;;;;;;;1.90;1.77;;;13.90;99.90;;;;;;5095420;28;20452;-86
2023/10/06 08:43:10;;;;;;;1.63;1.40;;;14.00;99.90;;;;;;5094035;28;20471;-86
2023/10/06 08:45:43;;;;;;;4.90;2.10;;;14.20;99.90;;;;;;5095398;28;20791;-86
2023/10/06 08:48:11;;;;;;;4.53;2.40;;;14.80;99.90;;;;;;5095163;28;20424;-85
2023/10/06 08:50:43;;;;;;;2.53;1.63;;;14.70;99.90;;;;;;5095221;28;20805;-86
2023/10/06 08:53:13;;;;;;;1.97;1.77;;;14.90;99.90;;;;;;5094801;28;20484;-86
2023/10/06 08:55:44;;;;;;;6.00;2.03;;;15.10;99.90;;;;;;5095242;28;20428;-86
2023/10/06 08:58:14;;;;;;;2.17;1.77;;;15.50;99.90;;;;;;5095132;28;20477;-85
2023/10/06 09:00:43;;;;;;;2.27;2.07;;;16.40;99.90;;;;;;5094745;28;20432;-85
2023/10/06 09:03:11;;;;;;;3.07;2.10;;;16.90;99.90;;;;;;5094817;28;20559;-86
2023/10/06 09:05:41;;;;;;;2.50;2.00;;;17.60;99.90;;;;;;5094840;28;20555;-86
2023/10/06 09:08:09;;;;;;;5.13;1.50;;;18.10;99.90;;;;;;5094735;28;20428;-85
2023/10/06 09:10:37;;;;;;;3.17;1.60;;;18.60;99.90;;;;;;5094387;28;20956;-85
2023/10/06 09:13:05;;;;;;;2.10;1.90;;;19.10;99.90;;;;;;5094505;28;20494;-85
2023/10/06 09:15:35;;;;;;;5.07;1.83;;;19.70;99.90;;;;;;5094533;28;20443;-86
2023/10/06 09:18:03;;;;;;;4.93;2.03;;;20.60;99.90;;;;;;5094703;28;20534;-86
2023/10/06 09:20:32;;;;;;;9.80;2.23;;;21.60;99.90;;;;;;5094561;28;20451;-86
2023/10/06 09:23:00;;;;;;;6.27;2.27;;;22.80;99.90;;;;;;5094818;28;20877;-86
2023/10/06 09:25:29;;;;;;;1.63;1.53;;;23.60;99.90;;;;;;5094449;28;20446;-85
2023/10/06 09:28:08;;;;;;;3.60;2.00;;;23.70;99.90;;;;;;5094685;28;20951;-86
2023/10/06 09:30:50;;;;;;;3.07;1.63;;;23.70;99.90;;;;;;5094384;28;20432;-86
2023/10/06 09:33:17;;;;;;;2.03;1.50;;;23.40;99.90;;;;;;5094264;28;20483;-85
2023/10/06 09:35:44;;;;;;;3.27;1.77;;;23.50;99.90;;;;;;5094294;28;20431;-86
2023/10/06 09:38:15;;;;;;;3.30;1.97;;;23.60;99.90;;;;;;5094458;28;20185;-86
2023/10/06 09:40:43;;;;;;;1.87;1.20;;;23.30;99.90;;;;;;5094544;28;20438;-84
2023/10/06 09:43:15;;;;;;;3.07;1.63;;;23.20;99.90;;;;;;5093672;28;20482;-86
2023/10/06 09:45:42;;;;;;;1.50;1.17;;;23.10;99.90;;;;;;5094102;28;20186;-86
2023/10/06 09:48:15;;;;;;;2.90;1.50;;;22.80;99.90;;;;;;5093993;28;20440;-86
2023/10/06 09:50:43;;;;;;;4.07;1.87;;;22.30;99.90;;;;;;5094072;28;20800;-86
2023/10/06 09:53:13;;;;;;;6.43;2.60;;;21.60;99.90;;;;;;5093784;28;20479;-85
2023/10/06 09:55:41;;;;;;;2.17;1.33;;;21.30;99.90;;;;;;5094086;28;20948;-86
2023/10/06 09:58:08;;;;;;;3.43;1.63;;;21.00;99.90;;;;;;5094212;28;20500;-87
2023/10/06 10:00:39;;;;;;;2.63;1.40;;;20.80;99.90;;;;;;5094097;28;20447;-86
2023/10/06 10:03:06;;;;;;;4.63;1.77;;;20.60;99.90;;;;;;5094082;28;20463;-87
2023/10/06 10:05:34;;;;;;;2.97;1.30;;;20.50;99.90;;;;;;5093831;28;20480;-86
2023/10/06 10:08:02;;;;;;;4.20;2.03;;;20.40;99.90;;;;;;5094137;28;20456;-86
2023/10/06 10:10:32;;;;;;;3.40;1.27;;;20.40;99.90;;;;;;5093940;28;20842;-86
2023/10/06 10:13:31;;;;;;;2.50;1.40;;;20.40;99.90;;;;;;5093666;28;20487;-87
2023/10/06 10:16:25;;;;;;;1.40;1.30;;;20.40;99.90;;;;;;5070872;28;20522;-86
2023/10/06 10:18:58;;;;;;;3.93;1.60;;;20.50;99.90;;;;;;5094652;28;20458;-86
2023/10/06 10:21:26;;;;;;;4.33;2.57;;;20.80;99.90;;;;;;5093860;28;20423;-86
2023/10/06 10:23:54;;;;;;;2.90;1.37;;;21.00;99.90;;;;;;5093552;28;20830;-86
2023/10/06 10:26:24;;;;;;;3.57;1.30;;;21.10;99.90;;;;;;5093917;28;20450;-86
2023/10/06 10:29:29;;;;;;;4.57;2.13;;;21.20;99.90;;;;;;5094939;28;20518;-86
2023/10/06 10:32:01;;;;;;;6.33;1.53;;;21.70;99.90;;;;;;5093547;28;20443;-86
2023/10/06 10:34:33;;;;;;;1.23;1.13;;;22.00;99.90;;;;;;5093596;28;20467;-86
2023/10/06 10:37:15;;;;;;;5.13;1.60;;;22.60;99.90;;;;;;5093617;28;20510;-87
2023/10/06 10:39:48;;;;;;;1.23;1.10;;;23.60;99.90;;;;;;5093596;28;20185;-86
2023/10/06 10:42:18;;;;;;;1.58;1.48;;;24.60;99.90;;;;;;5093152;28;20290;-86
2023/10/06 10:44:47;;;;;;;1.50;0.90;;;24.80;99.90;;;;;;5093677;28;20250;-86
2023/10/06 10:47:15;;;;;;;3.05;1.52;;;24.80;99.90;;;;;;5093382;28;20197;-86
2023/10/06 10:49:44;;;;;;;2.22;1.25;;;24.70;99.90;;;;;;5093399;28;20202;-86
2023/10/06 10:52:11;;;;;;;1.52;1.20;;;24.40;99.90;;;;;;5093374;28;20228;-87
2023/10/06 10:54:40;;;;;;;2.17;1.30;;;24.10;99.90;;;;;;5093280;28;20202;-86
2023/10/06 10:57:09;;;;;;;1.92;1.20;;;23.50;99.90;;;;;;5093243;28;20205;-85
2023/10/06 11:00:13;;;;;;;2.47;1.30;;;22.60;99.90;;;;;;5092877;28;20651;-85
2023/10/06 11:02:42;;;;;;;2.03;1.73;;;21.60;99.90;;;;;;5093367;28;20221;-85
2023/10/06 11:05:10;;;;;;;3.37;1.73;;;21.10;99.90;;;;;;5093560;28;20193;-85
2023/10/06 11:07:37;;;;;;;1.60;1.00;;;20.90;99.90;;;;;;5096800;28;20232;-86
2023/10/06 11:10:04;;;;;;;5.20;1.00;;;21.00;99.90;;;;;;5097141;28;20281;-85
2023/10/06 11:12:31;;;;;;;2.70;1.83;;;20.60;99.90;;;;;;5096852;28;20481;-85
2023/10/06 11:15:13;;;;;;;1.80;1.13;;;20.40;99.90;;;;;;5097149;28;20973;-85
2023/10/06 11:17:43;;;;;;;1.93;1.13;;;20.40;99.90;;;;;;5096614;28;20900;-85
2023/10/06 11:20:15;;;;;;;1.47;1.00;;;20.40;99.90;;;;;;5096855;28;20431;-85
2023/10/06 11:22:53;;;;;;;1.83;1.27;;;20.40;99.90;;;;;;5096718;28;20971;-85
2023/10/06 11:25:26;;;;;;;3.13;1.07;;;20.30;99.90;;;;;;5096782;28;20506;-85
2023/10/06 11:28:02;;;;;;;2.77;1.57;;;20.10;99.90;;;;;;5096633;28;20465;-85
2023/10/06 11:30:31;;;;;;;2.67;1.73;;;20.00;99.90;;;;;;5096717;28;20427;-85
2023/10/06 11:33:03;;;;;;;3.33;2.03;;;20.00;99.90;;;;;;5096519;28;20559;-84
2023/10/06 11:35:32;;;;;;;3.20;1.50;;;20.00;99.90;;;;;;5096505;28;20424;-85
2023/10/06 11:37:59;;;;;;;2.20;1.40;;;19.90;99.90;;;;;;5096182;28;21063;-84
2023/10/06 11:40:31;;;;;;;2.27;1.47;;;19.80;99.90;;;;;;5096690;28;20443;-85
2023/10/06 11:43:10;;;;;;;3.37;1.10;;;19.70;99.90;;;;;;5096179;28;20556;-85
2023/10/06 11:45:37;;;;;;;2.77;0.73;;;19.70;99.90;;;;;;5096417;28;20427;-85
2023/10/06 11:48:06;;;;;;;1.93;1.10;;;19.70;99.90;;;;;;5095943;28;20927;-85
2023/10/06 11:50:33;;;;;;;2.30;1.43;;;19.60;99.90;;;;;;5096397;28;20435;-84
2023/10/06 11:53:00;;;;;;;4.67;1.30;;;19.60;99.90;;;;;;5095904;28;20459;-84
2023/10/06 11:55:31;;;;;;;4.90;1.30;;;19.60;99.90;;;;;;5095982;28;20476;-85
2023/10/06 11:58:00;;;;;;;3.80;1.20;;;19.50;99.90;;;;;;5096219;28;20463;-85
2023/10/06 12:00:40;;;;;;;2.57;1.40;;;19.40;99.90;;;;;;5096053;28;20447;-85
2023/10/06 12:03:11;;;;;;;4.50;1.73;;;19.40;99.90;;;;;;5096169;28;20452;-85
2023/10/06 12:05:41;;;;;;;4.93;1.93;;;19.30;99.90;;;;;;5096146;28;20443;-85
2023/10/06 12:08:11;;;;;;;6.33;2.10;;;19.30;99.90;;;;;;5095772;28;20451;-85
2023/10/06 12:10:48;;;;;;;5.13;1.57;;;19.30;98.70;;;;;;5095943;28;20534;-85
2023/10/06 12:13:15;;;;;;;2.10;1.23;;;19.30;99.50;;;;;;5095816;28;20482;-85
2023/10/06 12:15:44;;;;;;;2.53;1.30;;;19.20;99.70;;;;;;5096094;28;20445;-85
2023/10/06 12:18:12;;;;;;;5.50;1.43;;;19.20;99.30;;;;;;5094465;28;20987;-85
2023/10/06 12:20:40;;;;;;;3.07;1.20;;;19.10;99.90;;;;;;5095617;28;20447;-84
2023/10/06 12:23:07;;;;;;;4.13;1.67;;;19.10;98.70;;;;;;5095478;28;20471;-84
2023/10/06 12:25:36;;;;;;;5.07;1.23;;;19.10;98.30;;;;;;5095588;28;20436;-85
2023/10/06 12:28:03;;;;;;;2.83;0.90;;;19.00;98.60;;;;;;5095512;28;20525;-85
2023/10/06 12:30:30;;;;;;;1.87;0.90;;;19.00;97.20;;;;;;5095596;28;20801;-85
2023/10/06 12:32:58;;;;;;;1.80;1.00;;;19.00;97.70;;;;;;5095225;28;20460;-85
2023/10/06 12:35:28;;;;;;;11.60;1.17;;;19.00;97.60;;;;;;5095875;28;20501;-85
2023/10/06 12:37:55;;;;;;;2.30;1.10;;;18.90;99.20;;;;;;5095160;28;20494;-85
2023/10/06 12:40:22;;;;;;;2.23;1.30;;;18.90;98.30;;;;;;5095403;28;20531;-85
2023/10/06 12:42:49;;;;;;;2.87;1.33;;;18.80;99.10;;;;;;5094991;28;20484;-85
2023/10/06 12:45:18;;;;;;;2.20;1.27;;;18.90;99.30;;;;;;5095268;28;20797;-85
2023/10/06 12:47:46;;;;;;;2.50;1.20;;;18.80;99.90;;;;;;5094843;28;21001;-85
2023/10/06 12:50:16;;;;;;;2.50;1.03;;;18.70;99.90;;;;;;5094820;28;20497;-85
2023/10/06 12:52:49;;;;;;;5.33;2.07;;;18.70;99.90;;;;;;5095000;28;20472;-85
2023/10/06 12:55:21;;;;;;;1.67;1.00;;;18.60;99.90;;;;;;5095230;28;20494;-85
2023/10/06 12:57:48;;;;;;;5.17;1.30;;;18.60;99.90;;;;;;5095196;28;20436;-85
2023/10/06 13:00:15;;;;;;;1.77;1.20;;;18.70;99.90;;;;;;5095103;28;20440;-85
2023/10/06 13:02:42;;;;;;;1.80;1.17;;;18.70;99.90;;;;;;5094538;28;21015;-85